sensor_id;sensor_type;location;lat;lon;timestamp;P1;durP1;ratioP1;P2;durP2;ratioP2
64816;SDS011;53289;45.602;11.904;2022-12-16T00:00:21;15.88;;;10.73;;
64816;SDS011;53289;45.602;11.904;2022-12-16T00:02:51;14.82;;;8.80;;
64816;SDS011;53289;45.602;11.904;2022-12-16T00:05:17;18.90;;;10.95;;
64816;SDS011;53289;45.602;11.904;2022-12-16T00:07:47;18.38;;;11.32;;
64816;SDS011;53289;45.602;11.904;2022-12-16T00:10:13;18.35;;;10.82;;
64816;SDS011;53289;45.602;11.904;2022-12-16T00:12:39;13.70;;;8.63;;
64816;SDS011;53289;45.602;11.904;2022-12-16T00:15:05;16.83;;;10.50;;
64816;SDS011;53289;45.602;11.904;2022-12-16T00:17:32;13.57;;;9.80;;
64816;SDS011;53289;45.602;11.904;2022-12-16T00:19:58;17.90;;;10.30;;
64816;SDS011;53289;45.602;11.904;2022-12-16T00:22:24;17.63;;;10.57;;
64816;SDS011;53289;45.602;11.904;2022-12-16T00:24:50;22.63;;;13.63;;
64816;SDS011;53289;45.602;11.904;2022-12-16T00:27:16;22.17;;;12.95;;
64816;SDS011;53289;45.602;11.904;2022-12-16T00:29:42;20.30;;;13.38;;
64816;SDS011;53289;45.602;11.904;2022-12-16T00:32:08;20.30;;;12.73;;
64816;SDS011;53289;45.602;11.904;2022-12-16T00:34:34;20.73;;;12.15;;
64816;SDS011;53289;45.602;11.904;2022-12-16T00:37:00;22.52;;;12.77;;
64816;SDS011;53289;45.602;11.904;2022-12-16T00:39:26;20.92;;;13.38;;
64816;SDS011;53289;45.602;11.904;2022-12-16T00:41:52;22.30;;;13.35;;
64816;SDS011;53289;45.602;11.904;2022-12-16T00:44:18;20.48;;;13.30;;
64816;SDS011;53289;45.602;11.904;2022-12-16T00:46:44;20.48;;;12.77;;
64816;SDS011;53289;45.602;11.904;2022-12-16T00:49:10;21.60;;;13.70;;
64816;SDS011;53289;45.602;11.904;2022-12-16T00:51:35;19.65;;;12.57;;
64816;SDS011;53289;45.602;11.904;2022-12-16T00:54:01;18.33;;;11.88;;
64816;SDS011;53289;45.602;11.904;2022-12-16T00:56:28;16.15;;;10.13;;
64816;SDS011;53289;45.602;11.904;2022-12-16T00:58:54;15.30;;;9.85;;
64816;SDS011;53289;45.602;11.904;2022-12-16T01:01:19;13.43;;;8.45;;
64816;SDS011;53289;45.602;11.904;2022-12-16T01:03:45;11.23;;;6.75;;
64816;SDS011;53289;45.602;11.904;2022-12-16T01:06:15;8.60;;;5.05;;
64816;SDS011;53289;45.602;11.904;2022-12-16T01:08:42;9.50;;;4.72;;
64816;SDS011;53289;45.602;11.904;2022-12-16T01:11:15;5.15;;;3.60;;
64816;SDS011;53289;45.602;11.904;2022-12-16T01:13:43;5.82;;;3.50;;
64816;SDS011;53289;45.602;11.904;2022-12-16T01:16:09;5.25;;;3.70;;
64816;SDS011;53289;45.602;11.904;2022-12-16T01:18:35;5.30;;;3.13;;
64816;SDS011;53289;45.602;11.904;2022-12-16T01:21:03;6.45;;;3.80;;
64816;SDS011;53289;45.602;11.904;2022-12-16T01:23:30;6.50;;;3.70;;
64816;SDS011;53289;45.602;11.904;2022-12-16T01:25:57;7.60;;;4.30;;
64816;SDS011;53289;45.602;11.904;2022-12-16T01:28:25;8.13;;;4.68;;
64816;SDS011;53289;45.602;11.904;2022-12-16T01:30:55;10.32;;;6.45;;
64816;SDS011;53289;45.602;11.904;2022-12-16T01:33:28;14.70;;;8.85;;
64816;SDS011;53289;45.602;11.904;2022-12-16T01:36:01;13.82;;;9.13;;
64816;SDS011;53289;45.602;11.904;2022-12-16T01:38:30;15.32;;;9.93;;
64816;SDS011;53289;45.602;11.904;2022-12-16T01:40:56;18.52;;;11.80;;
64816;SDS011;53289;45.602;11.904;2022-12-16T01:43:24;18.05;;;11.85;;
64816;SDS011;53289;45.602;11.904;2022-12-16T01:45:53;18.27;;;11.35;;
64816;SDS011;53289;45.602;11.904;2022-12-16T01:48:31;21.27;;;13.77;;
64816;SDS011;53289;45.602;11.904;2022-12-16T01:51:06;21.43;;;14.47;;
64816;SDS011;53289;45.602;11.904;2022-12-16T01:53:40;22.88;;;13.80;;
64816;SDS011;53289;45.602;11.904;2022-12-16T01:56:07;21.10;;;13.57;;
64816;SDS011;53289;45.602;11.904;2022-12-16T01:58:37;23.58;;;14.20;;
64816;SDS011;53289;45.602;11.904;2022-12-16T02:01:05;24.58;;;15.27;;
64816;SDS011;53289;45.602;11.904;2022-12-16T02:03:32;26.40;;;16.35;;
64816;SDS011;53289;45.602;11.904;2022-12-16T02:06:01;24.63;;;14.80;;
64816;SDS011;53289;45.602;11.904;2022-12-16T02:08:29;26.33;;;15.57;;
64816;SDS011;53289;45.602;11.904;2022-12-16T02:13:56;23.98;;;15.35;;
64816;SDS011;53289;45.602;11.904;2022-12-16T02:41:03;27.75;;;15.90;;
64816;SDS011;53289;45.602;11.904;2022-12-16T02:44:09;20.70;;;12.50;;
64816;SDS011;53289;45.602;11.904;2022-12-16T02:46:30;20.13;;;12.73;;
64816;SDS011;53289;45.602;11.904;2022-12-16T02:49:08;22.17;;;12.98;;
64816;SDS011;53289;45.602;11.904;2022-12-16T02:51:57;22.15;;;13.70;;
64816;SDS011;53289;45.602;11.904;2022-12-16T02:54:25;20.85;;;12.38;;
64816;SDS011;53289;45.602;11.904;2022-12-16T02:57:14;20.25;;;13.07;;
64816;SDS011;53289;45.602;11.904;2022-12-16T03:00:07;19.08;;;12.10;;
64816;SDS011;53289;45.602;11.904;2022-12-16T03:05:45;20.15;;;12.60;;
64816;SDS011;53289;45.602;11.904;2022-12-16T03:08:14;19.65;;;12.02;;
64816;SDS011;53289;45.602;11.904;2022-12-16T03:10:57;20.60;;;12.40;;
64816;SDS011;53289;45.602;11.904;2022-12-16T03:13:26;21.98;;;13.05;;
64816;SDS011;53289;45.602;11.904;2022-12-16T03:15:57;23.63;;;14.43;;
64816;SDS011;53289;45.602;11.904;2022-12-16T03:18:25;21.80;;;13.35;;
64816;SDS011;53289;45.602;11.904;2022-12-16T03:23:50;20.85;;;12.82;;
64816;SDS011;53289;45.602;11.904;2022-12-16T03:26:21;23.58;;;13.38;;
64816;SDS011;53289;45.602;11.904;2022-12-16T03:28:57;24.67;;;14.35;;
64816;SDS011;53289;45.602;11.904;2022-12-16T03:31:37;23.23;;;14.50;;
64816;SDS011;53289;45.602;11.904;2022-12-16T03:37:13;23.90;;;14.57;;
64816;SDS011;53289;45.602;11.904;2022-12-16T03:39:41;22.75;;;13.68;;
64816;SDS011;53289;45.602;11.904;2022-12-16T03:42:11;27.02;;;15.35;;
64816;SDS011;53289;45.602;11.904;2022-12-16T03:44:39;21.15;;;13.45;;
64816;SDS011;53289;45.602;11.904;2022-12-16T03:47:07;27.15;;;14.85;;
64816;SDS011;53289;45.602;11.904;2022-12-16T03:49:34;24.75;;;14.68;;
64816;SDS011;53289;45.602;11.904;2022-12-16T03:51:59;24.23;;;13.65;;
64816;SDS011;53289;45.602;11.904;2022-12-16T03:54:32;26.88;;;14.98;;
64816;SDS011;53289;45.602;11.904;2022-12-16T03:56:57;24.13;;;14.57;;
64816;SDS011;53289;45.602;11.904;2022-12-16T03:59:23;26.00;;;15.32;;
64816;SDS011;53289;45.602;11.904;2022-12-16T04:01:50;22.52;;;14.13;;
64816;SDS011;53289;45.602;11.904;2022-12-16T04:04:16;24.63;;;14.73;;
64816;SDS011;53289;45.602;11.904;2022-12-16T04:06:42;23.88;;;14.35;;
64816;SDS011;53289;45.602;11.904;2022-12-16T04:09:08;23.60;;;13.80;;
64816;SDS011;53289;45.602;11.904;2022-12-16T04:11:34;24.70;;;14.38;;
64816;SDS011;53289;45.602;11.904;2022-12-16T04:14:18;22.00;;;13.98;;
64816;SDS011;53289;45.602;11.904;2022-12-16T04:17:03;24.23;;;14.45;;
64816;SDS011;53289;45.602;11.904;2022-12-16T04:19:48;21.52;;;13.95;;
64816;SDS011;53289;45.602;11.904;2022-12-16T04:22:39;21.67;;;13.85;;
64816;SDS011;53289;45.602;11.904;2022-12-16T04:25:32;21.77;;;13.90;;
64816;SDS011;53289;45.602;11.904;2022-12-16T04:28:00;22.48;;;13.30;;
64816;SDS011;53289;45.602;11.904;2022-12-16T04:30:27;21.92;;;14.20;;
64816;SDS011;53289;45.602;11.904;2022-12-16T04:32:59;21.83;;;13.93;;
64816;SDS011;53289;45.602;11.904;2022-12-16T04:35:47;24.02;;;13.82;;
64816;SDS011;53289;45.602;11.904;2022-12-16T04:41:35;21.23;;;12.95;;
64816;SDS011;53289;45.602;11.904;2022-12-16T04:47:03;22.45;;;12.98;;
64816;SDS011;53289;45.602;11.904;2022-12-16T04:49:48;24.67;;;13.48;;
64816;SDS011;53289;45.602;11.904;2022-12-16T04:52:32;20.50;;;12.80;;
64816;SDS011;53289;45.602;11.904;2022-12-16T04:55:17;18.88;;;12.50;;
64816;SDS011;53289;45.602;11.904;2022-12-16T04:58:01;18.77;;;12.48;;
64816;SDS011;53289;45.602;11.904;2022-12-16T05:01:03;20.92;;;13.45;;
64816;SDS011;53289;45.602;11.904;2022-12-16T05:03:47;19.42;;;12.73;;
64816;SDS011;53289;45.602;11.904;2022-12-16T05:06:32;24.10;;;13.18;;
64816;SDS011;53289;45.602;11.904;2022-12-16T05:09:16;20.17;;;12.23;;
64816;SDS011;53289;45.602;11.904;2022-12-16T05:12:21;19.98;;;12.90;;
64816;SDS011;53289;45.602;11.904;2022-12-16T05:17:49;19.95;;;12.27;;
64816;SDS011;53289;45.602;11.904;2022-12-16T05:20:33;18.98;;;11.55;;
64816;SDS011;53289;45.602;11.904;2022-12-16T05:23:17;17.70;;;11.82;;
64816;SDS011;53289;45.602;11.904;2022-12-16T05:28:46;18.50;;;11.10;;
64816;SDS011;53289;45.602;11.904;2022-12-16T05:34:14;17.10;;;10.77;;
64816;SDS011;53289;45.602;11.904;2022-12-16T05:36:58;21.67;;;12.90;;
64816;SDS011;53289;45.602;11.904;2022-12-16T05:39:42;20.05;;;12.25;;
64816;SDS011;53289;45.602;11.904;2022-12-16T05:45:10;20.60;;;12.43;;
64816;SDS011;53289;45.602;11.904;2022-12-16T05:47:54;21.40;;;13.15;;
64816;SDS011;53289;45.602;11.904;2022-12-16T05:50:39;19.75;;;12.70;;
64816;SDS011;53289;45.602;11.904;2022-12-16T05:53:23;22.02;;;13.93;;
64816;SDS011;53289;45.602;11.904;2022-12-16T05:56:07;18.80;;;11.77;;
64816;SDS011;53289;45.602;11.904;2022-12-16T05:58:51;22.83;;;13.27;;
64816;SDS011;53289;45.602;11.904;2022-12-16T06:01:35;18.42;;;12.60;;
64816;SDS011;53289;45.602;11.904;2022-12-16T06:07:03;18.63;;;11.63;;
64816;SDS011;53289;45.602;11.904;2022-12-16T06:12:32;28.05;;;14.23;;
64816;SDS011;53289;45.602;11.904;2022-12-16T06:18:11;21.05;;;10.82;;
64816;SDS011;53289;45.602;11.904;2022-12-16T06:20:55;19.65;;;12.82;;
64816;SDS011;53289;45.602;11.904;2022-12-16T06:23:39;20.02;;;12.15;;
64816;SDS011;53289;45.602;11.904;2022-12-16T06:29:08;16.97;;;11.43;;
64816;SDS011;53289;45.602;11.904;2022-12-16T06:31:52;18.13;;;11.55;;
64816;SDS011;53289;45.602;11.904;2022-12-16T06:34:36;16.48;;;10.85;;
64816;SDS011;53289;45.602;11.904;2022-12-16T06:37:20;19.25;;;12.25;;
64816;SDS011;53289;45.602;11.904;2022-12-16T06:42:49;22.17;;;12.70;;
64816;SDS011;53289;45.602;11.904;2022-12-16T06:45:32;26.55;;;13.50;;
64816;SDS011;53289;45.602;11.904;2022-12-16T06:51:01;21.08;;;12.05;;
64816;SDS011;53289;45.602;11.904;2022-12-16T06:56:29;19.00;;;10.75;;
64816;SDS011;53289;45.602;11.904;2022-12-16T06:59:14;20.70;;;11.57;;
64816;SDS011;53289;45.602;11.904;2022-12-16T07:01:58;22.48;;;13.63;;
64816;SDS011;53289;45.602;11.904;2022-12-16T07:04:59;24.23;;;13.93;;
64816;SDS011;53289;45.602;11.904;2022-12-16T07:07:49;18.23;;;11.38;;
64816;SDS011;53289;45.602;11.904;2022-12-16T07:10:34;24.33;;;13.68;;
64816;SDS011;53289;45.602;11.904;2022-12-16T07:13:19;23.75;;;13.57;;
64816;SDS011;53289;45.602;11.904;2022-12-16T07:16:03;25.85;;;13.63;;
64816;SDS011;53289;45.602;11.904;2022-12-16T07:18:47;23.58;;;12.98;;
64816;SDS011;53289;45.602;11.904;2022-12-16T07:21:31;24.98;;;13.75;;
64816;SDS011;53289;45.602;11.904;2022-12-16T07:24:16;26.45;;;14.63;;
64816;SDS011;53289;45.602;11.904;2022-12-16T07:27:00;22.63;;;13.35;;
64816;SDS011;53289;45.602;11.904;2022-12-16T07:29:44;29.25;;;16.00;;
64816;SDS011;53289;45.602;11.904;2022-12-16T07:32:28;27.30;;;14.77;;
64816;SDS011;53289;45.602;11.904;2022-12-16T07:37:56;26.17;;;13.85;;
64816;SDS011;53289;45.602;11.904;2022-12-16T07:40:40;22.08;;;11.85;;
64816;SDS011;53289;45.602;11.904;2022-12-16T07:43:24;22.15;;;12.27;;
64816;SDS011;53289;45.602;11.904;2022-12-16T07:46:09;28.52;;;14.57;;
64816;SDS011;53289;45.602;11.904;2022-12-16T07:51:37;29.02;;;14.90;;
64816;SDS011;53289;45.602;11.904;2022-12-16T07:54:21;20.42;;;12.10;;
64816;SDS011;53289;45.602;11.904;2022-12-16T07:59:49;21.95;;;12.30;;
64816;SDS011;53289;45.602;11.904;2022-12-16T08:05:18;30.00;;;14.52;;
64816;SDS011;53289;45.602;11.904;2022-12-16T08:08:02;32.67;;;15.30;;
64816;SDS011;53289;45.602;11.904;2022-12-16T08:10:52;30.73;;;15.65;;
64816;SDS011;53289;45.602;11.904;2022-12-16T08:13:36;25.10;;;13.52;;
64816;SDS011;53289;45.602;11.904;2022-12-16T08:19:04;23.97;;;13.63;;
64816;SDS011;53289;45.602;11.904;2022-12-16T08:24:33;26.07;;;13.57;;
64816;SDS011;53289;45.602;11.904;2022-12-16T08:30:03;25.70;;;13.43;;
64816;SDS011;53289;45.602;11.904;2022-12-16T08:32:47;26.27;;;13.30;;
64816;SDS011;53289;45.602;11.904;2022-12-16T08:35:31;26.38;;;13.60;;
64816;SDS011;53289;45.602;11.904;2022-12-16T08:38:15;22.88;;;12.85;;
64816;SDS011;53289;45.602;11.904;2022-12-16T08:40:59;26.13;;;14.32;;
64816;SDS011;53289;45.602;11.904;2022-12-16T08:43:44;26.45;;;13.55;;
64816;SDS011;53289;45.602;11.904;2022-12-16T08:46:28;29.55;;;14.77;;
64816;SDS011;53289;45.602;11.904;2022-12-16T08:49:12;22.23;;;11.82;;
64816;SDS011;53289;45.602;11.904;2022-12-16T08:54:40;28.08;;;13.98;;
64816;SDS011;53289;45.602;11.904;2022-12-16T09:00:09;33.28;;;14.07;;
64816;SDS011;53289;45.602;11.904;2022-12-16T09:02:54;30.50;;;12.88;;
64816;SDS011;53289;45.602;11.904;2022-12-16T09:05:39;23.77;;;12.90;;
64816;SDS011;53289;45.602;11.904;2022-12-16T09:08:24;29.33;;;13.50;;
64816;SDS011;53289;45.602;11.904;2022-12-16T09:11:08;34.10;;;13.30;;
64816;SDS011;53289;45.602;11.904;2022-12-16T09:13:53;38.13;;;12.45;;
64816;SDS011;53289;45.602;11.904;2022-12-16T09:16:38;21.92;;;12.75;;
64816;SDS011;53289;45.602;11.904;2022-12-16T09:19:22;24.63;;;13.93;;
64816;SDS011;53289;45.602;11.904;2022-12-16T09:22:06;27.48;;;14.85;;
64816;SDS011;53289;45.602;11.904;2022-12-16T09:24:51;25.73;;;14.43;;
64816;SDS011;53289;45.602;11.904;2022-12-16T09:30:19;23.75;;;13.52;;
64816;SDS011;53289;45.602;11.904;2022-12-16T09:33:14;27.08;;;13.80;;
64816;SDS011;53289;45.602;11.904;2022-12-16T09:35:59;22.70;;;12.65;;
64816;SDS011;53289;45.602;11.904;2022-12-16T09:47:21;30.00;;;14.57;;
64816;SDS011;53289;45.602;11.904;2022-12-16T09:50:27;26.25;;;15.00;;
64816;SDS011;53289;45.602;11.904;2022-12-16T09:53:15;26.17;;;15.10;;
64816;SDS011;53289;45.602;11.904;2022-12-16T09:56:03;27.00;;;14.32;;
64816;SDS011;53289;45.602;11.904;2022-12-16T09:58:55;28.88;;;16.10;;
64816;SDS011;53289;45.602;11.904;2022-12-16T10:01:43;26.23;;;15.63;;
64816;SDS011;53289;45.602;11.904;2022-12-16T10:04:28;26.15;;;15.10;;
64816;SDS011;53289;45.602;11.904;2022-12-16T10:07:16;30.25;;;16.13;;
64816;SDS011;53289;45.602;11.904;2022-12-16T10:19:28;30.40;;;17.48;;
64816;SDS011;53289;45.602;11.904;2022-12-16T10:31:27;155.70;;;24.88;;
64816;SDS011;53289;45.602;11.904;2022-12-16T10:34:16;67.10;;;18.30;;
64816;SDS011;53289;45.602;11.904;2022-12-16T10:37:02;50.67;;;18.13;;
64816;SDS011;53289;45.602;11.904;2022-12-16T10:39:52;41.05;;;16.73;;
64816;SDS011;53289;45.602;11.904;2022-12-16T10:42:45;29.42;;;16.13;;
64816;SDS011;53289;45.602;11.904;2022-12-16T10:45:40;54.55;;;16.60;;
64816;SDS011;53289;45.602;11.904;2022-12-16T10:48:29;53.10;;;19.20;;
64816;SDS011;53289;45.602;11.904;2022-12-16T10:51:16;32.40;;;16.13;;
64816;SDS011;53289;45.602;11.904;2022-12-16T10:57:17;30.25;;;16.27;;
64816;SDS011;53289;45.602;11.904;2022-12-16T11:03:35;32.13;;;18.25;;
64816;SDS011;53289;45.602;11.904;2022-12-16T11:06:24;33.08;;;14.90;;
64816;SDS011;53289;45.602;11.904;2022-12-16T11:12:16;32.15;;;16.60;;
64816;SDS011;53289;45.602;11.904;2022-12-16T11:18:21;29.95;;;16.95;;
64816;SDS011;53289;45.602;11.904;2022-12-16T11:21:12;31.00;;;17.45;;
64816;SDS011;53289;45.602;11.904;2022-12-16T11:24:14;29.02;;;17.55;;
64816;SDS011;53289;45.602;11.904;2022-12-16T11:27:01;30.77;;;17.98;;
64816;SDS011;53289;45.602;11.904;2022-12-16T11:29:57;27.23;;;16.27;;
64816;SDS011;53289;45.602;11.904;2022-12-16T11:32:53;30.30;;;18.17;;
64816;SDS011;53289;45.602;11.904;2022-12-16T11:35:41;27.25;;;16.42;;
64816;SDS011;53289;45.602;11.904;2022-12-16T11:38:43;25.17;;;15.07;;
64816;SDS011;53289;45.602;11.904;2022-12-16T11:41:39;27.20;;;16.92;;
64816;SDS011;53289;45.602;11.904;2022-12-16T11:47:21;24.55;;;13.80;;
64816;SDS011;53289;45.602;11.904;2022-12-16T11:50:12;22.23;;;13.63;;
64816;SDS011;53289;45.602;11.904;2022-12-16T11:53:00;27.13;;;16.30;;
64816;SDS011;53289;45.602;11.904;2022-12-16T11:55:47;24.50;;;14.65;;
64816;SDS011;53289;45.602;11.904;2022-12-16T11:58:43;19.90;;;13.13;;
64816;SDS011;53289;45.602;11.904;2022-12-16T12:04:47;21.70;;;13.07;;
64816;SDS011;53289;45.602;11.904;2022-12-16T12:07:45;19.65;;;12.70;;
64816;SDS011;53289;45.602;11.904;2022-12-16T12:16:45;20.70;;;12.35;;
64816;SDS011;53289;45.602;11.904;2022-12-16T12:22:46;22.63;;;13.18;;
64816;SDS011;53289;45.602;11.904;2022-12-16T12:25:36;20.42;;;13.55;;
64816;SDS011;53289;45.602;11.904;2022-12-16T12:28:32;22.70;;;14.05;;
64816;SDS011;53289;45.602;11.904;2022-12-16T12:38:24;21.80;;;13.88;;
64816;SDS011;53289;45.602;11.904;2022-12-16T12:41:18;22.38;;;14.48;;
64816;SDS011;53289;45.602;11.904;2022-12-16T12:47:28;26.63;;;17.25;;
64816;SDS011;53289;45.602;11.904;2022-12-16T12:53:47;23.58;;;14.55;;
64816;SDS011;53289;45.602;11.904;2022-12-16T12:59:44;30.65;;;17.42;;
64816;SDS011;53289;45.602;11.904;2022-12-16T13:02:34;23.38;;;14.45;;
64816;SDS011;53289;45.602;11.904;2022-12-16T13:05:29;24.20;;;15.23;;
64816;SDS011;53289;45.602;11.904;2022-12-16T13:08:29;26.65;;;16.23;;
64816;SDS011;53289;45.602;11.904;2022-12-16T13:11:16;28.15;;;17.13;;
64816;SDS011;53289;45.602;11.904;2022-12-16T13:14:01;22.00;;;13.95;;
64816;SDS011;53289;45.602;11.904;2022-12-16T13:17:12;23.48;;;14.25;;
64816;SDS011;53289;45.602;11.904;2022-12-16T13:19:57;29.38;;;17.33;;
64816;SDS011;53289;45.602;11.904;2022-12-16T13:22:42;29.02;;;18.40;;
64816;SDS011;53289;45.602;11.904;2022-12-16T13:26:00;27.65;;;17.15;;
64816;SDS011;53289;45.602;11.904;2022-12-16T13:28:38;28.30;;;17.42;;
64816;SDS011;53289;45.602;11.904;2022-12-16T13:31:25;24.92;;;15.00;;
64816;SDS011;53289;45.602;11.904;2022-12-16T13:37:02;24.42;;;15.05;;
64816;SDS011;53289;45.602;11.904;2022-12-16T13:40:04;26.52;;;14.35;;
64816;SDS011;53289;45.602;11.904;2022-12-16T13:43:01;28.40;;;16.05;;
64816;SDS011;53289;45.602;11.904;2022-12-16T13:46:28;29.15;;;16.10;;
64816;SDS011;53289;45.602;11.904;2022-12-16T13:49:11;35.72;;;19.67;;
64816;SDS011;53289;45.602;11.904;2022-12-16T13:55:41;27.50;;;17.00;;
64816;SDS011;53289;45.602;11.904;2022-12-16T13:58:41;31.35;;;18.05;;
64816;SDS011;53289;45.602;11.904;2022-12-16T14:01:33;35.67;;;19.45;;
64816;SDS011;53289;45.602;11.904;2022-12-16T14:04:22;30.77;;;17.75;;
64816;SDS011;53289;45.602;11.904;2022-12-16T14:07:17;30.50;;;15.75;;
64816;SDS011;53289;45.602;11.904;2022-12-16T14:10:05;38.00;;;19.88;;
64816;SDS011;53289;45.602;11.904;2022-12-16T14:13:09;28.98;;;17.00;;
64816;SDS011;53289;45.602;11.904;2022-12-16T14:19:11;28.83;;;16.05;;
64816;SDS011;53289;45.602;11.904;2022-12-16T14:24:53;41.17;;;23.40;;
64816;SDS011;53289;45.602;11.904;2022-12-16T14:27:44;48.00;;;24.80;;
64816;SDS011;53289;45.602;11.904;2022-12-16T14:30:30;43.00;;;22.00;;
64816;SDS011;53289;45.602;11.904;2022-12-16T14:35:59;39.80;;;21.63;;
64816;SDS011;53289;45.602;11.904;2022-12-16T14:38:48;43.53;;;23.63;;
64816;SDS011;53289;45.602;11.904;2022-12-16T14:41:32;46.28;;;22.83;;
64816;SDS011;53289;45.602;11.904;2022-12-16T14:44:21;44.33;;;24.00;;
64816;SDS011;53289;45.602;11.904;2022-12-16T14:47:16;49.03;;;23.70;;
64816;SDS011;53289;45.602;11.904;2022-12-16T14:50:03;45.60;;;23.45;;
64816;SDS011;53289;45.602;11.904;2022-12-16T14:53:29;40.58;;;20.73;;
64816;SDS011;53289;45.602;11.904;2022-12-16T14:59:13;38.88;;;21.20;;
64816;SDS011;53289;45.602;11.904;2022-12-16T15:01:59;39.83;;;20.60;;
64816;SDS011;53289;45.602;11.904;2022-12-16T15:04:56;37.65;;;19.50;;
64816;SDS011;53289;45.602;11.904;2022-12-16T15:07:40;37.80;;;20.10;;
64816;SDS011;53289;45.602;11.904;2022-12-16T15:10:25;37.22;;;19.60;;
64816;SDS011;53289;45.602;11.904;2022-12-16T15:13:12;41.30;;;21.35;;
64816;SDS011;53289;45.602;11.904;2022-12-16T15:16:01;40.50;;;20.95;;
64816;SDS011;53289;45.602;11.904;2022-12-16T15:18:47;40.08;;;22.83;;
64816;SDS011;53289;45.602;11.904;2022-12-16T15:21:41;39.22;;;21.20;;
64816;SDS011;53289;45.602;11.904;2022-12-16T15:24:34;40.47;;;21.92;;
64816;SDS011;53289;45.602;11.904;2022-12-16T15:27:25;45.92;;;23.30;;
64816;SDS011;53289;45.602;11.904;2022-12-16T15:33:26;45.85;;;24.17;;
64816;SDS011;53289;45.602;11.904;2022-12-16T15:39:19;44.13;;;23.67;;
64816;SDS011;53289;45.602;11.904;2022-12-16T15:42:29;41.95;;;21.45;;
64816;SDS011;53289;45.602;11.904;2022-12-16T15:45:17;34.45;;;19.33;;
64816;SDS011;53289;45.602;11.904;2022-12-16T15:48:21;40.58;;;21.77;;
64816;SDS011;53289;45.602;11.904;2022-12-16T15:51:29;37.65;;;19.80;;
64816;SDS011;53289;45.602;11.904;2022-12-16T15:54:14;41.85;;;21.88;;
64816;SDS011;53289;45.602;11.904;2022-12-16T16:00:39;38.35;;;20.45;;
64816;SDS011;53289;45.602;11.904;2022-12-16T16:03:24;41.28;;;21.33;;
64816;SDS011;53289;45.602;11.904;2022-12-16T16:09:07;38.28;;;22.75;;
64816;SDS011;53289;45.602;11.904;2022-12-16T16:11:58;44.55;;;21.98;;
64816;SDS011;53289;45.602;11.904;2022-12-16T16:14:43;35.30;;;20.08;;
64816;SDS011;53289;45.602;11.904;2022-12-16T16:17:27;34.53;;;19.55;;
64816;SDS011;53289;45.602;11.904;2022-12-16T16:20:13;45.47;;;22.98;;
64816;SDS011;53289;45.602;11.904;2022-12-16T16:22:59;33.40;;;18.13;;
64816;SDS011;53289;45.602;11.904;2022-12-16T16:25:44;37.25;;;19.08;;
64816;SDS011;53289;45.602;11.904;2022-12-16T16:28:30;37.53;;;19.75;;
64816;SDS011;53289;45.602;11.904;2022-12-16T16:31:14;33.90;;;17.65;;
64816;SDS011;53289;45.602;11.904;2022-12-16T16:33:59;34.95;;;17.33;;
64816;SDS011;53289;45.602;11.904;2022-12-16T16:36:43;48.65;;;25.00;;
64816;SDS011;53289;45.602;11.904;2022-12-16T16:39:35;40.95;;;21.10;;
64816;SDS011;53289;45.602;11.904;2022-12-16T16:42:19;39.28;;;21.10;;
64816;SDS011;53289;45.602;11.904;2022-12-16T16:45:07;32.78;;;17.30;;
64816;SDS011;53289;45.602;11.904;2022-12-16T16:48:01;39.95;;;20.13;;
64816;SDS011;53289;45.602;11.904;2022-12-16T16:50:56;41.53;;;20.73;;
64816;SDS011;53289;45.602;11.904;2022-12-16T16:53:41;37.85;;;18.38;;
64816;SDS011;53289;45.602;11.904;2022-12-16T16:56:26;37.30;;;18.52;;
64816;SDS011;53289;45.602;11.904;2022-12-16T16:59:13;37.25;;;20.48;;
64816;SDS011;53289;45.602;11.904;2022-12-16T17:01:57;36.88;;;19.42;;
64816;SDS011;53289;45.602;11.904;2022-12-16T17:04:42;33.63;;;18.27;;
64816;SDS011;53289;45.602;11.904;2022-12-16T17:07:26;38.78;;;20.23;;
64816;SDS011;53289;45.602;11.904;2022-12-16T17:10:11;30.83;;;17.90;;
64816;SDS011;53289;45.602;11.904;2022-12-16T17:12:55;37.08;;;19.08;;
64816;SDS011;53289;45.602;11.904;2022-12-16T17:15:40;36.85;;;19.17;;
64816;SDS011;53289;45.602;11.904;2022-12-16T17:18:24;40.53;;;21.23;;
64816;SDS011;53289;45.602;11.904;2022-12-16T17:23:52;34.72;;;17.92;;
64816;SDS011;53289;45.602;11.904;2022-12-16T17:26:41;38.13;;;19.58;;
64816;SDS011;53289;45.602;11.904;2022-12-16T17:29:26;37.45;;;20.23;;
64816;SDS011;53289;45.602;11.904;2022-12-16T17:32:11;36.28;;;18.83;;
64816;SDS011;53289;45.602;11.904;2022-12-16T17:34:55;36.33;;;19.50;;
64816;SDS011;53289;45.602;11.904;2022-12-16T17:37:40;46.10;;;23.40;;
64816;SDS011;53289;45.602;11.904;2022-12-16T17:40:25;46.25;;;23.00;;
64816;SDS011;53289;45.602;11.904;2022-12-16T17:43:09;47.90;;;24.58;;
64816;SDS011;53289;45.602;11.904;2022-12-16T17:45:58;45.60;;;23.33;;
64816;SDS011;53289;45.602;11.904;2022-12-16T17:48:44;37.25;;;19.27;;
64816;SDS011;53289;45.602;11.904;2022-12-16T17:51:32;34.00;;;18.05;;
64816;SDS011;53289;45.602;11.904;2022-12-16T17:57:01;30.98;;;17.10;;
64816;SDS011;53289;45.602;11.904;2022-12-16T17:59:45;38.95;;;20.10;;
64816;SDS011;53289;45.602;11.904;2022-12-16T18:02:29;37.90;;;19.75;;
64816;SDS011;53289;45.602;11.904;2022-12-16T18:07:58;43.33;;;22.85;;
64816;SDS011;53289;45.602;11.904;2022-12-16T18:13:26;47.03;;;23.92;;
64816;SDS011;53289;45.602;11.904;2022-12-16T18:18:54;47.65;;;23.85;;
64816;SDS011;53289;45.602;11.904;2022-12-16T18:24:23;40.47;;;20.73;;
64816;SDS011;53289;45.602;11.904;2022-12-16T18:29:51;47.83;;;24.83;;
64816;SDS011;53289;45.602;11.904;2022-12-16T18:32:35;54.58;;;27.58;;
64816;SDS011;53289;45.602;11.904;2022-12-16T18:38:03;38.72;;;19.75;;
64816;SDS011;53289;45.602;11.904;2022-12-16T18:43:32;40.10;;;20.92;;
64816;SDS011;53289;45.602;11.904;2022-12-16T18:49:00;52.67;;;25.05;;
64816;SDS011;53289;45.602;11.904;2022-12-16T18:51:52;48.38;;;25.40;;
64816;SDS011;53289;45.602;11.904;2022-12-16T18:57:20;51.67;;;24.92;;
64816;SDS011;53289;45.602;11.904;2022-12-16T19:00:04;38.38;;;21.10;;
64816;SDS011;53289;45.602;11.904;2022-12-16T19:02:49;38.78;;;21.25;;
64816;SDS011;53289;45.602;11.904;2022-12-16T19:05:34;40.15;;;20.35;;
64816;SDS011;53289;45.602;11.904;2022-12-16T19:08:18;34.63;;;19.95;;
64816;SDS011;53289;45.602;11.904;2022-12-16T19:13:47;43.67;;;21.73;;
64816;SDS011;53289;45.602;11.904;2022-12-16T19:16:31;42.72;;;21.65;;
64816;SDS011;53289;45.602;11.904;2022-12-16T19:19:16;38.08;;;20.23;;
64816;SDS011;53289;45.602;11.904;2022-12-16T19:22:00;46.38;;;23.17;;
64816;SDS011;53289;45.602;11.904;2022-12-16T19:27:28;43.65;;;21.67;;
64816;SDS011;53289;45.602;11.904;2022-12-16T19:30:13;56.80;;;26.63;;
64816;SDS011;53289;45.602;11.904;2022-12-16T19:32:57;43.08;;;19.55;;
64816;SDS011;53289;45.602;11.904;2022-12-16T19:38:25;54.45;;;26.58;;
64816;SDS011;53289;45.602;11.904;2022-12-16T19:41:13;48.28;;;23.67;;
64816;SDS011;53289;45.602;11.904;2022-12-16T19:43:59;53.30;;;27.02;;